LFBLLFLC

Guest
Details From LFBL - Limoges Bellegarde
To LFLC - Clermont Ferrand Aulnat
Flight Number -
Tags Generated
Created
Modified
Stats Distance 83 nm / 154 km
Max Altitude 0 ft / 0 m
Waypoints 2
Social Downloads 8
Likes 0
Share VATSIM

Download

Looking for another format? Having issues loading an existing format? Contact us
Advertisement - Login to hide

Notes

Generated

Route

LFBL LFLC

ID Type Via Altitude Latitude Longitude Leg Dist Tot Dist Heading (true) Name
O LFBL APT - 0 ft / 0 m 45.85249˚ 1.17254˚ - 0 nm - -
O LFLC APT - 0 ft / 0 m 45.78482˚ 3.15082˚ 82 nm 82 nm 92° / 94° -

Altitude Profile

Advertisement - Login to hide

LFBL

Details ICAO LFBL (LIG)
Name Limoges Bellegarde
Region France
Timezone Europe/Paris (UTC+2.0)
Stats Elevation 1,300 ft / 396 m (AMSL)
Location 45.861896° 1.181368°
Runways 1
Magnetic Variation 0.478° E

METAR

LFBL 230400Z AUTO 02006KT CAVOK 13/11 Q1016 TEMPO 4000 BR

Decode

TAF

TAF LFBL 222300Z 2300/2324 VRB03KT CAVOK PROB30 TEMPO 2303/2306 4000 BR BECMG 2310/2312 SCT035TCU TEMPO 2312/2316 4000 SHRA SCT040CB PROB30 TEMPO 2312/2315 -TSRA BKN040CB

Decode

Departure Runways

ID Width Length Bearing (true) Bearing (mag) Surface Threshold Offset Overrun Length
03 148 ft / 45 m 8,202 ft / 2,500 m 33.16° 32.68° Asphalt 0 ft / 0 m 0 ft / 0 m
21 148 ft / 45 m 8,202 ft / 2,500 m 213.18° 212.70° Asphalt 196 ft / 60 m 0 ft / 0 m

LFLC

Details ICAO LFLC (CFE)
Name Clermont-Ferrand_Auvergne
Region France
Timezone Europe/Paris (UTC+2.0)
Stats Elevation 1,089 ft / 332 m (AMSL)
Location 45.786712° 3.169967°
Runways 1
Magnetic Variation 1.034° E

METAR

LFLC 230400Z AUTO 00000KT CAVOK 13/12 Q1016 NOSIG

Decode

TAF

TAF LFLC 230200Z 2303/2403 VRB05KT CAVOK PROB40 TEMPO 2306/2318 SHRA SCT030TCU FEW050CB PROB30 TEMPO 2309/2315 VRB15G25KT 2000 TSRA SCT040CB SCT070TCU

Decode

Destination Runways

ID Width Length Bearing (true) Bearing (mag) Surface Threshold Offset Overrun Length
08 148 ft / 45 m 9,878 ft / 3,011 m 81.95° 80.92° Asphalt 0 ft / 0 m 0 ft / 0 m
26 148 ft / 45 m 9,878 ft / 3,011 m 261.98° 260.95° Asphalt 476 ft / 145 m 0 ft / 0 m

Approach Navaids

Runway Type Ident Frequency Range Bearing (true) Bearing (mag) Slope Elevation
26 Localiser CF 111.10 MHz 27 nm / 50 km 261.98° 260.95° - 1,089 ft / 332 m (AMSL)
26 Glidescope CF 111.10 MHz 27 nm / 50 km 261.98° 260.95° 3.00° 1,089 ft / 332 m (AMSL)
26 DME CF 111.10 MHz 27 nm / 50 km - - - 1,089 ft / 332 m (AMSL)

Popular Alternatives